Puritas Park, Ohio
Current Conditions -  °F | °C
As of 7:51 AM on Sunday 21 Dec 2014 (Local Time) from KCLE Reporting Station
Overcast Overcast  
Wind Chill: 30°   Ceiling: 2300
Heat Index: 30°   Visibility: 9mi
Dew Point: 22°   Wind: 0mph
Humidity: 72%   Direction: NA
Pressure: 30.34"   Gusts: NA
Location:  41.4315°N, 81.8114°W
Report Text: KCLE 211251Z 00000KT 9SM OVC023 M01/M06 A3034 RMK AO2 SLP283 T10111056 $
Loading
Personal Weather Stations






























Interactive Weather Map New forecast layout! Learn more

10-Day Weather Forecast

Advertisements
Track Severe Weather on mobile